sensor_id;sensor_type;location;lat;lon;timestamp;pressure;altitude;pressure_sealevel;temperature;humidity
11017;BME280;54687;50.800;6.772;2023-04-22T00:01:13;61021.63;;;-144.06;68.41
11017;BME280;54687;50.800;6.772;2023-04-22T00:03:41;61046.78;;;-144.06;68.11
11017;BME280;54687;50.800;6.772;2023-04-22T00:06:10;61032.13;;;-144.06;67.49
11017;BME280;54687;50.800;6.772;2023-04-22T00:08:36;61040.50;;;-144.06;67.54
11017;BME280;54687;50.800;6.772;2023-04-22T00:11:03;61069.84;;;-144.06;67.37
11017;BME280;54687;50.800;6.772;2023-04-22T00:13:30;61053.09;;;-144.06;67.56
11017;BME280;54687;50.800;6.772;2023-04-22T00:15:57;61076.13;;;-144.06;67.42
11017;BME280;54687;50.800;6.772;2023-04-22T00:18:24;61046.78;;;-144.06;67.51
11017;BME280;54687;50.800;6.772;2023-04-22T00:20:50;61059.38;;;-144.06;67.31
11017;BME280;54687;50.800;6.772;2023-04-22T00:23:19;61027.94;;;-144.06;67.30
11017;BME280;54687;50.800;6.772;2023-04-22T00:25:45;61046.78;;;-144.06;66.93
11017;BME280;54687;50.800;6.772;2023-04-22T00:28:12;61063.56;;;-144.06;67.19
11017;BME280;54687;50.800;6.772;2023-04-22T00:30:38;61021.63;;;-144.06;66.70
11017;BME280;54687;50.800;6.772;2023-04-22T00:33:05;61042.59;;;-144.06;66.88
11017;BME280;54687;50.800;6.772;2023-04-22T00:35:31;61025.84;;;-144.06;66.88
11017;BME280;54687;50.800;6.772;2023-04-22T00:37:58;61044.69;;;-144.06;66.74
11017;BME280;54687;50.800;6.772;2023-04-22T00:40:26;61042.59;;;-144.06;66.56
11017;BME280;54687;50.800;6.772;2023-04-22T00:42:53;61105.50;;;-144.06;66.53
11017;BME280;54687;50.800;6.772;2023-04-22T00:45:20;61015.34;;;-144.06;66.71
11017;BME280;54687;50.800;6.772;2023-04-22T00:47:47;61023.75;;;-144.06;66.43
11017;BME280;54687;50.800;6.772;2023-04-22T00:50:14;61048.88;;;-144.06;66.41
11017;BME280;54687;50.800;6.772;2023-04-22T00:52:41;61048.88;;;-144.06;66.66
11017;BME280;54687;50.800;6.772;2023-04-22T00:55:08;61065.66;;;-144.06;66.22
11017;BME280;54687;50.800;6.772;2023-04-22T00:57:37;61011.16;;;-144.06;65.88
11017;BME280;54687;50.800;6.772;2023-04-22T01:00:05;61053.09;;;-144.06;65.75
11017;BME280;54687;50.800;6.772;2023-04-22T01:02:35;61059.38;;;-144.06;66.32
11017;BME280;54687;50.800;6.772;2023-04-22T01:05:03;61042.59;;;-144.06;66.21
11017;BME280;54687;50.800;6.772;2023-04-22T01:07:30;61057.28;;;-144.06;66.32
11017;BME280;54687;50.800;6.772;2023-04-22T01:09:56;61051.00;;;-144.06;66.02
11017;BME280;54687;50.800;6.772;2023-04-22T01:12:23;61046.78;;;-144.06;66.09
11017;BME280;54687;50.800;6.772;2023-04-22T01:14:51;61044.69;;;-144.06;66.04
11017;BME280;54687;50.800;6.772;2023-04-22T01:17:17;61019.53;;;-144.06;66.15
11017;BME280;54687;50.800;6.772;2023-04-22T01:19:46;61057.28;;;-144.06;66.14
11017;BME280;54687;50.800;6.772;2023-04-22T01:22:13;61067.75;;;-144.06;66.17
11017;BME280;54687;50.800;6.772;2023-04-22T01:24:42;61023.75;;;-144.06;66.12
11017;BME280;54687;50.800;6.772;2023-04-22T01:27:08;61046.78;;;-144.06;66.39
11017;BME280;54687;50.800;6.772;2023-04-22T01:29:37;61071.94;;;-144.06;66.29
11017;BME280;54687;50.800;6.772;2023-04-22T01:32:04;61042.59;;;-144.06;66.38
11017;BME280;54687;50.800;6.772;2023-04-22T01:34:31;61044.69;;;-144.06;66.58
11017;BME280;54687;50.800;6.772;2023-04-22T01:36:58;61015.34;;;-144.06;66.56
11017;BME280;54687;50.800;6.772;2023-04-22T01:39:24;61046.78;;;-144.06;66.40
11017;BME280;54687;50.800;6.772;2023-04-22T01:41:53;61017.44;;;-144.06;66.57
11017;BME280;54687;50.800;6.772;2023-04-22T01:44:20;61048.88;;;-144.06;66.46
11017;BME280;54687;50.800;6.772;2023-04-22T01:46:47;61025.84;;;-144.06;66.75
11017;BME280;54687;50.800;6.772;2023-04-22T01:49:14;61034.22;;;-144.06;66.90
11017;BME280;54687;50.800;6.772;2023-04-22T01:51:40;61027.94;;;-144.06;66.94
11017;BME280;54687;50.800;6.772;2023-04-22T01:54:08;61080.34;;;-144.06;66.75
11017;BME280;54687;50.800;6.772;2023-04-22T01:56:35;61042.59;;;-144.06;66.83
11017;BME280;54687;50.800;6.772;2023-04-22T01:59:06;61036.31;;;-144.06;66.80
11017;BME280;54687;50.800;6.772;2023-04-22T02:01:32;61025.84;;;-144.06;66.75
11017;BME280;54687;50.800;6.772;2023-04-22T02:03:59;61025.84;;;-144.06;66.68
11017;BME280;54687;50.800;6.772;2023-04-22T02:06:25;61055.19;;;-144.06;67.03
11017;BME280;54687;50.800;6.772;2023-04-22T02:08:52;61042.59;;;-144.06;66.79
11017;BME280;54687;50.800;6.772;2023-04-22T02:11:19;61034.22;;;-144.06;66.85
11017;BME280;54687;50.800;6.772;2023-04-22T02:13:46;61030.03;;;-144.06;66.75
11017;BME280;54687;50.800;6.772;2023-04-22T02:16:14;61061.47;;;-144.06;66.54
11017;BME280;54687;50.800;6.772;2023-04-22T02:18:41;61017.44;;;-144.06;66.99
11017;BME280;54687;50.800;6.772;2023-04-22T02:21:07;61034.22;;;-144.06;66.86
11017;BME280;54687;50.800;6.772;2023-04-22T02:23:34;61021.63;;;-144.06;66.95
11017;BME280;54687;50.800;6.772;2023-04-22T02:26:01;61019.53;;;-144.06;66.93
11017;BME280;54687;50.800;6.772;2023-04-22T02:28:28;61030.03;;;-144.06;67.08
11017;BME280;54687;50.800;6.772;2023-04-22T02:30:55;61030.03;;;-144.06;67.04
11017;BME280;54687;50.800;6.772;2023-04-22T02:33:23;61055.19;;;-144.06;67.13
11017;BME280;54687;50.800;6.772;2023-04-22T02:35:50;61030.03;;;-144.06;67.12
11017;BME280;54687;50.800;6.772;2023-04-22T02:38:16;61076.13;;;-144.06;67.33
11017;BME280;54687;50.800;6.772;2023-04-22T02:40:43;61067.75;;;-144.06;67.13
11017;BME280;54687;50.800;6.772;2023-04-22T02:43:10;61004.88;;;-144.06;66.98
11017;BME280;54687;50.800;6.772;2023-04-22T02:45:36;61046.78;;;-144.06;66.98
11017;BME280;54687;50.800;6.772;2023-04-22T02:48:05;61067.75;;;-144.06;66.82
11017;BME280;54687;50.800;6.772;2023-04-22T02:50:33;61017.44;;;-144.06;66.55
11017;BME280;54687;50.800;6.772;2023-04-22T02:52:59;61004.88;;;-144.06;66.27
11017;BME280;54687;50.800;6.772;2023-04-22T02:55:26;61004.88;;;-144.06;66.20
11017;BME280;54687;50.800;6.772;2023-04-22T02:57:52;61046.78;;;-144.06;66.13
11017;BME280;54687;50.800;6.772;2023-04-22T03:00:19;61027.94;;;-144.06;66.17
11017;BME280;54687;50.800;6.772;2023-04-22T03:02:46;61046.78;;;-144.06;66.33
11017;BME280;54687;50.800;6.772;2023-04-22T03:05:12;61027.94;;;-144.06;66.44
11017;BME280;54687;50.800;6.772;2023-04-22T03:07:41;60971.34;;;-144.06;66.34
11017;BME280;54687;50.800;6.772;2023-04-22T03:10:09;61042.59;;;-144.06;66.40
11017;BME280;54687;50.800;6.772;2023-04-22T03:12:35;61030.03;;;-144.06;66.66
11017;BME280;54687;50.800;6.772;2023-04-22T03:15:02;61004.88;;;-144.06;66.41
11017;BME280;54687;50.800;6.772;2023-04-22T03:17:29;61071.94;;;-144.06;66.30
11017;BME280;54687;50.800;6.772;2023-04-22T03:19:55;61021.63;;;-144.06;66.56
11017;BME280;54687;50.800;6.772;2023-04-22T03:22:22;61063.56;;;-144.06;66.34
11017;BME280;54687;50.800;6.772;2023-04-22T03:24:51;61030.03;;;-144.06;66.16
11017;BME280;54687;50.800;6.772;2023-04-22T03:27:17;61038.41;;;-144.06;66.20
11017;BME280;54687;50.800;6.772;2023-04-22T03:29:44;61011.16;;;-144.06;66.10
11017;BME280;54687;50.800;6.772;2023-04-22T03:32:11;61025.84;;;-144.06;66.13
11017;BME280;54687;50.800;6.772;2023-04-22T03:34:38;61027.94;;;-144.06;65.85
11017;BME280;54687;50.800;6.772;2023-04-22T03:37:04;61036.31;;;-144.06;66.19
11017;BME280;54687;50.800;6.772;2023-04-22T03:39:31;61021.63;;;-144.06;65.95
11017;BME280;54687;50.800;6.772;2023-04-22T03:41:59;61046.78;;;-144.06;65.80
11017;BME280;54687;50.800;6.772;2023-04-22T03:44:25;61023.75;;;-144.06;65.65
11017;BME280;54687;50.800;6.772;2023-04-22T03:46:52;61025.84;;;-144.06;65.40
11017;BME280;54687;50.800;6.772;2023-04-22T03:49:18;61019.53;;;-144.06;65.88
11017;BME280;54687;50.800;6.772;2023-04-22T03:54:17;61021.63;;;-144.06;66.12
11017;BME280;54687;50.800;6.772;2023-04-22T03:56:43;61019.53;;;-144.06;66.01
11017;BME280;54687;50.800;6.772;2023-04-22T03:59:11;61067.75;;;-144.06;66.16
11017;BME280;54687;50.800;6.772;2023-04-22T04:01:38;61025.84;;;-144.06;65.88
11017;BME280;54687;50.800;6.772;2023-04-22T04:04:04;61038.41;;;-144.06;66.30
11017;BME280;54687;50.800;6.772;2023-04-22T04:06:31;61002.78;;;-144.06;66.42
11017;BME280;54687;50.800;6.772;2023-04-22T04:08:58;61032.13;;;-144.06;66.39
11017;BME280;54687;50.800;6.772;2023-04-22T04:11:25;61032.13;;;-144.06;66.44
11017;BME280;54687;50.800;6.772;2023-04-22T04:13:52;61067.75;;;-144.06;66.67
11017;BME280;54687;50.800;6.772;2023-04-22T04:16:20;61053.09;;;-144.06;66.52
11017;BME280;54687;50.800;6.772;2023-04-22T04:18:48;61051.00;;;-144.06;66.27
11017;BME280;54687;50.800;6.772;2023-04-22T04:21:15;61063.56;;;-144.06;66.48
11017;BME280;54687;50.800;6.772;2023-04-22T04:23:41;61006.97;;;-144.06;66.73
11017;BME280;54687;50.800;6.772;2023-04-22T04:26:08;61055.19;;;-144.06;66.67
11017;BME280;54687;50.800;6.772;2023-04-22T04:28:35;61044.69;;;-144.06;66.73
11017;BME280;54687;50.800;6.772;2023-04-22T04:31:01;61038.41;;;-144.06;66.47
11017;BME280;54687;50.800;6.772;2023-04-22T04:33:29;61084.53;;;-144.06;66.63
11017;BME280;54687;50.800;6.772;2023-04-22T04:35:57;61021.63;;;-144.06;66.35
11017;BME280;54687;50.800;6.772;2023-04-22T04:38:24;61046.78;;;-144.06;66.42
11017;BME280;54687;50.800;6.772;2023-04-22T04:40:51;61027.94;;;-144.06;66.56
11017;BME280;54687;50.800;6.772;2023-04-22T04:43:18;61044.69;;;-144.06;66.68
11017;BME280;54687;50.800;6.772;2023-04-22T04:45:45;61038.41;;;-144.06;66.88
11017;BME280;54687;50.800;6.772;2023-04-22T04:48:12;61030.03;;;-144.06;66.80
11017;BME280;54687;50.800;6.772;2023-04-22T04:50:41;61019.53;;;-144.06;66.54
11017;BME280;54687;50.800;6.772;2023-04-22T04:53:08;61055.19;;;-144.06;66.61
11017;BME280;54687;50.800;6.772;2023-04-22T04:55:35;61071.94;;;-144.06;66.65
11017;BME280;54687;50.800;6.772;2023-04-22T04:58:01;61082.44;;;-144.06;66.62
11017;BME280;54687;50.800;6.772;2023-04-22T05:00:28;61019.53;;;-144.06;66.40
11017;BME280;54687;50.800;6.772;2023-04-22T05:02:55;61017.44;;;-144.06;66.35
11017;BME280;54687;50.800;6.772;2023-04-22T05:05:21;61013.25;;;-144.06;66.37
11017;BME280;54687;50.800;6.772;2023-04-22T05:07:49;61015.34;;;-144.06;66.09
11017;BME280;54687;50.800;6.772;2023-04-22T05:10:19;61038.41;;;-144.06;66.48
11017;BME280;54687;50.800;6.772;2023-04-22T05:12:46;61042.59;;;-144.06;66.18
11017;BME280;54687;50.800;6.772;2023-04-22T05:15:12;61006.97;;;-144.06;66.14
11017;BME280;54687;50.800;6.772;2023-04-22T05:17:39;61063.56;;;-144.06;66.02
11017;BME280;54687;50.800;6.772;2023-04-22T05:20:06;61051.00;;;-144.06;65.67
11017;BME280;54687;50.800;6.772;2023-04-22T05:22:33;61046.78;;;-144.06;65.54
11017;BME280;54687;50.800;6.772;2023-04-22T05:25:02;61036.31;;;-144.06;65.12
11017;BME280;54687;50.800;6.772;2023-04-22T05:27:28;61004.88;;;-144.06;65.21
11017;BME280;54687;50.800;6.772;2023-04-22T05:29:55;61013.25;;;-144.06;65.10
11017;BME280;54687;50.800;6.772;2023-04-22T05:32:22;61021.63;;;-144.06;64.96
11017;BME280;54687;50.800;6.772;2023-04-22T05:34:48;61017.44;;;-144.06;64.69
11017;BME280;54687;50.800;6.772;2023-04-22T05:37:15;61059.38;;;-144.06;64.38
11017;BME280;54687;50.800;6.772;2023-04-22T05:39:41;61067.75;;;-144.06;64.07
11017;BME280;54687;50.800;6.772;2023-04-22T05:42:09;61030.03;;;-144.06;63.94
11017;BME280;54687;50.800;6.772;2023-04-22T05:44:36;60990.19;;;-144.06;63.78
11017;BME280;54687;50.800;6.772;2023-04-22T05:47:03;61046.78;;;-144.06;63.30
11017;BME280;54687;50.800;6.772;2023-04-22T05:49:29;61034.22;;;-144.06;63.34
11017;BME280;54687;50.800;6.772;2023-04-22T05:51:56;61021.63;;;-144.06;63.49
11017;BME280;54687;50.800;6.772;2023-04-22T05:54:23;61057.28;;;-144.06;63.86
11017;BME280;54687;50.800;6.772;2023-04-22T05:56:49;61046.78;;;-144.06;63.74
11017;BME280;54687;50.800;6.772;2023-04-22T05:59:17;60996.50;;;-144.06;63.51
11017;BME280;54687;50.800;6.772;2023-04-22T06:01:43;61021.63;;;-144.06;63.24
11017;BME280;54687;50.800;6.772;2023-04-22T06:04:10;61078.25;;;-144.06;63.05
11017;BME280;54687;50.800;6.772;2023-04-22T06:06:37;60996.50;;;-144.06;62.81
11017;BME280;54687;50.800;6.772;2023-04-22T06:09:03;61013.25;;;-144.06;62.90
11017;BME280;54687;50.800;6.772;2023-04-22T06:11:31;61013.25;;;-144.06;63.23
11017;BME280;54687;50.800;6.772;2023-04-22T06:13:57;61025.84;;;-144.06;63.37
11017;BME280;54687;50.800;6.772;2023-04-22T06:16:26;61025.84;;;-144.06;63.29
11017;BME280;54687;50.800;6.772;2023-04-22T06:18:52;60960.84;;;-144.06;62.56
11017;BME280;54687;50.800;6.772;2023-04-22T06:21:19;61013.25;;;-144.06;62.62
11017;BME280;54687;50.800;6.772;2023-04-22T06:23:46;61019.53;;;-144.06;62.29
11017;BME280;54687;50.800;6.772;2023-04-22T06:26:12;60998.59;;;-144.06;61.92
11017;BME280;54687;50.800;6.772;2023-04-22T06:28:39;61009.06;;;-144.06;61.42
11017;BME280;54687;50.800;6.772;2023-04-22T06:31:05;61009.06;;;-144.06;60.20
11017;BME280;54687;50.800;6.772;2023-04-22T06:33:33;60992.28;;;-144.06;59.83
11017;BME280;54687;50.800;6.772;2023-04-22T06:36:00;60946.19;;;-144.06;59.44
11017;BME280;54687;50.800;6.772;2023-04-22T06:38:26;60971.34;;;-144.06;59.59
11017;BME280;54687;50.800;6.772;2023-04-22T06:40:53;60923.13;;;-144.06;59.36
11017;BME280;54687;50.800;6.772;2023-04-22T06:43:20;60981.81;;;-144.06;59.21
11017;BME280;54687;50.800;6.772;2023-04-22T06:45:46;60956.66;;;-144.06;59.11
11017;BME280;54687;50.800;6.772;2023-04-22T06:48:13;60981.81;;;-144.06;58.44
11017;BME280;54687;50.800;6.772;2023-04-22T06:50:41;60962.94;;;-144.06;58.98
11017;BME280;54687;50.800;6.772;2023-04-22T06:53:07;60975.53;;;-144.06;58.98
11017;BME280;54687;50.800;6.772;2023-04-22T06:55:34;60956.66;;;-144.06;59.12
11017;BME280;54687;50.800;6.772;2023-04-22T06:58:01;61030.03;;;-144.06;59.16
11017;BME280;54687;50.800;6.772;2023-04-22T07:00:27;60967.13;;;-144.06;59.16
11017;BME280;54687;50.800;6.772;2023-04-22T07:02:56;60975.53;;;-144.06;59.60
11017;BME280;54687;50.800;6.772;2023-04-22T07:05:23;60950.38;;;-144.06;59.80
11017;BME280;54687;50.800;6.772;2023-04-22T07:07:51;60958.75;;;-144.06;59.36
11017;BME280;54687;50.800;6.772;2023-04-22T07:10:17;61000.69;;;-144.06;59.13
11017;BME280;54687;50.800;6.772;2023-04-22T07:12:44;60954.56;;;-144.06;59.33
11017;BME280;54687;50.800;6.772;2023-04-22T07:15:11;60954.56;;;-144.06;59.20
11017;BME280;54687;50.800;6.772;2023-04-22T07:17:37;60983.91;;;-144.06;59.09
11017;BME280;54687;50.800;6.772;2023-04-22T07:20:05;60958.75;;;-144.06;59.01
11017;BME280;54687;50.800;6.772;2023-04-22T07:22:32;60975.53;;;-144.06;58.56
11017;BME280;54687;50.800;6.772;2023-04-22T07:25:00;60988.09;;;-144.06;58.47
11017;BME280;54687;50.800;6.772;2023-04-22T07:27:26;60965.03;;;-144.06;58.50
11017;BME280;54687;50.800;6.772;2023-04-22T07:29:53;60950.38;;;-144.06;58.16
11017;BME280;54687;50.800;6.772;2023-04-22T07:32:20;60925.22;;;-144.06;58.83
11017;BME280;54687;50.800;6.772;2023-04-22T07:34:47;60941.97;;;-144.06;58.47
11017;BME280;54687;50.800;6.772;2023-04-22T07:37:13;60929.41;;;-144.06;57.31
11017;BME280;54687;50.800;6.772;2023-04-22T07:39:40;60937.78;;;-144.06;56.90
11017;BME280;54687;50.800;6.772;2023-04-22T07:42:07;60916.84;;;-144.06;56.83
11017;BME280;54687;50.800;6.772;2023-04-22T07:44:34;60946.19;;;-144.06;55.16
11017;BME280;54687;50.800;6.772;2023-04-22T07:47:01;60931.50;;;-144.06;55.25
11017;BME280;54687;50.800;6.772;2023-04-22T07:49:27;60916.84;;;-144.06;54.08
11017;BME280;54687;50.800;6.772;2023-04-22T07:51:54;60908.44;;;-144.06;54.27
11017;BME280;54687;50.800;6.772;2023-04-22T07:54:21;60914.72;;;-144.06;52.99
11017;BME280;54687;50.800;6.772;2023-04-22T07:56:47;60937.78;;;-144.06;52.46
11017;BME280;54687;50.800;6.772;2023-04-22T07:59:15;60929.41;;;-144.06;52.55
11017;BME280;54687;50.800;6.772;2023-04-22T08:01:43;60879.09;;;-144.06;51.65
11017;BME280;54687;50.800;6.772;2023-04-22T08:04:10;60877.00;;;-144.06;51.72
11017;BME280;54687;50.800;6.772;2023-04-22T08:06:37;60883.28;;;-144.06;50.94
11017;BME280;54687;50.800;6.772;2023-04-22T08:09:03;60887.47;;;-144.06;51.00
11017;BME280;54687;50.800;6.772;2023-04-22T08:11:30;60883.28;;;-144.06;51.12
11017;BME280;54687;50.800;6.772;2023-04-22T08:13:57;60858.13;;;-144.06;49.81
11017;BME280;54687;50.800;6.772;2023-04-22T08:16:24;60858.13;;;-144.06;48.64
11017;BME280;54687;50.800;6.772;2023-04-22T08:18:51;60885.38;;;-144.06;48.27
11017;BME280;54687;50.800;6.772;2023-04-22T08:21:18;60856.03;;;-144.06;46.43
11017;BME280;54687;50.800;6.772;2023-04-22T08:23:45;60820.41;;;-144.06;46.67
11017;BME280;54687;50.800;6.772;2023-04-22T08:26:12;60870.72;;;-144.06;47.01
11017;BME280;54687;50.800;6.772;2023-04-22T08:28:40;60843.47;;;-144.06;46.00
11017;BME280;54687;50.800;6.772;2023-04-22T08:31:07;60805.75;;;-144.06;46.29
11017;BME280;54687;50.800;6.772;2023-04-22T08:33:39;60795.25;;;-144.06;44.52
11017;BME280;54687;50.800;6.772;2023-04-22T08:36:06;60807.84;;;-144.06;44.71
11017;BME280;54687;50.800;6.772;2023-04-22T08:38:33;60820.41;;;-144.06;44.82
11017;BME280;54687;50.800;6.772;2023-04-22T08:41:00;60812.03;;;-144.06;44.43
11017;BME280;54687;50.800;6.772;2023-04-22T08:43:29;60830.88;;;-144.06;44.93
11017;BME280;54687;50.800;6.772;2023-04-22T08:45:56;60807.84;;;-144.06;45.77
11017;BME280;54687;50.800;6.772;2023-04-22T08:48:22;60818.31;;;-144.06;45.94
11017;BME280;54687;50.800;6.772;2023-04-22T08:50:50;60788.97;;;-144.06;45.97
11017;BME280;54687;50.800;6.772;2023-04-22T08:53:19;60837.19;;;-144.06;46.32
11017;BME280;54687;50.800;6.772;2023-04-22T08:55:48;60845.56;;;-144.06;45.09
11017;BME280;54687;50.800;6.772;2023-04-22T08:58:14;60799.44;;;-144.06;45.40
11017;BME280;54687;50.800;6.772;2023-04-22T09:00:42;60799.44;;;-144.06;45.82
11017;BME280;54687;50.800;6.772;2023-04-22T09:03:09;60824.59;;;-144.06;45.62
11017;BME280;54687;50.800;6.772;2023-04-22T09:05:37;60833.00;;;-144.06;45.33
11017;BME280;54687;50.800;6.772;2023-04-22T09:08:06;60826.69;;;-144.06;44.05
11017;BME280;54687;50.800;6.772;2023-04-22T09:10:35;60833.00;;;-144.06;44.45
11017;BME280;54687;50.800;6.772;2023-04-22T09:13:03;60776.41;;;-144.06;44.50
11017;BME280;54687;50.800;6.772;2023-04-22T09:15:30;60824.59;;;-144.06;44.45
11017;BME280;54687;50.800;6.772;2023-04-22T09:17:57;60803.66;;;-144.06;44.05
11017;BME280;54687;50.800;6.772;2023-04-22T09:20:25;60791.06;;;-144.06;44.96
11017;BME280;54687;50.800;6.772;2023-04-22T09:22:52;60818.31;;;-144.06;45.03
11017;BME280;54687;50.800;6.772;2023-04-22T09:25:22;60757.53;;;-144.06;44.51
11017;BME280;54687;50.800;6.772;2023-04-22T09:27:49;60809.94;;;-144.06;44.52
11017;BME280;54687;50.800;6.772;2023-04-22T09:30:17;60761.72;;;-144.06;44.02
11017;BME280;54687;50.800;6.772;2023-04-22T09:32:51;60807.84;;;-144.06;42.96
11017;BME280;54687;50.800;6.772;2023-04-22T09:35:23;60772.19;;;-144.06;43.30
11017;BME280;54687;50.800;6.772;2023-04-22T09:37:51;60833.00;;;-144.06;43.35
11017;BME280;54687;50.800;6.772;2023-04-22T09:40:20;60784.78;;;-144.06;43.77
11017;BME280;54687;50.800;6.772;2023-04-22T09:42:47;60770.09;;;-144.06;43.51
11017;BME280;54687;50.800;6.772;2023-04-22T09:45:24;60786.88;;;-144.06;43.16
11017;BME280;54687;50.800;6.772;2023-04-22T09:47:51;60774.28;;;-144.06;42.46
11017;BME280;54687;50.800;6.772;2023-04-22T09:50:19;60803.66;;;-144.06;43.22
11017;BME280;54687;50.800;6.772;2023-04-22T09:52:53;60795.25;;;-144.06;42.70
11017;BME280;54687;50.800;6.772;2023-04-22T09:55:22;60809.94;;;-144.06;42.95
11017;BME280;54687;50.800;6.772;2023-04-22T09:57:51;60812.03;;;-144.06;42.57
11017;BME280;54687;50.800;6.772;2023-04-22T10:00:19;60795.25;;;-144.06;42.26
11017;BME280;54687;50.800;6.772;2023-04-22T10:02:46;60797.34;;;-144.06;42.70
11017;BME280;54687;50.800;6.772;2023-04-22T10:05:12;60795.25;;;-144.06;42.68
11017;BME280;54687;50.800;6.772;2023-04-22T10:07:39;60799.44;;;-144.06;42.55
11017;BME280;54687;50.800;6.772;2023-04-22T10:10:07;60782.69;;;-144.06;41.22
11017;BME280;54687;50.800;6.772;2023-04-22T10:12:36;60757.53;;;-144.06;41.29
11017;BME280;54687;50.800;6.772;2023-04-22T10:15:03;60707.22;;;-144.06;40.71
11017;BME280;54687;50.800;6.772;2023-04-22T10:17:32;60759.63;;;-144.06;40.90
11017;BME280;54687;50.800;6.772;2023-04-22T10:20:02;60770.09;;;-144.06;40.27
11017;BME280;54687;50.800;6.772;2023-04-22T10:22:30;60757.53;;;-144.06;40.34
11017;BME280;54687;50.800;6.772;2023-04-22T10:24:58;60744.94;;;-144.06;40.87
11017;BME280;54687;50.800;6.772;2023-04-22T10:27:25;60749.16;;;-144.06;40.45
11017;BME280;54687;50.800;6.772;2023-04-22T10:29:55;60734.47;;;-144.06;40.25
11017;BME280;54687;50.800;6.772;2023-04-22T10:32:23;60759.63;;;-144.06;40.54
11017;BME280;54687;50.800;6.772;2023-04-22T10:35:06;60751.25;;;-144.06;40.70
11017;BME280;54687;50.800;6.772;2023-04-22T10:37:33;60744.94;;;-144.06;41.08
11017;BME280;54687;50.800;6.772;2023-04-22T10:40:08;60732.38;;;-144.06;40.39
11017;BME280;54687;50.800;6.772;2023-04-22T10:42:38;60751.25;;;-144.06;40.46
11017;BME280;54687;50.800;6.772;2023-04-22T10:45:11;60736.56;;;-144.06;40.71
11017;BME280;54687;50.800;6.772;2023-04-22T10:47:39;60732.38;;;-144.06;40.45
11017;BME280;54687;50.800;6.772;2023-04-22T10:50:12;60711.41;;;-144.06;39.09
11017;BME280;54687;50.800;6.772;2023-04-22T10:52:39;60682.06;;;-144.06;39.35
11017;BME280;54687;50.800;6.772;2023-04-22T10:55:06;60713.50;;;-144.06;39.40
11017;BME280;54687;50.800;6.772;2023-04-22T10:57:36;60728.19;;;-144.06;38.68
11017;BME280;54687;50.800;6.772;2023-04-22T11:00:39;60677.88;;;-144.06;38.51
11017;BME280;54687;50.800;6.772;2023-04-22T11:03:09;60732.38;;;-144.06;38.25
11017;BME280;54687;50.800;6.772;2023-04-22T11:05:36;60724.00;;;-144.06;38.59
11017;BME280;54687;50.800;6.772;2023-04-22T11:08:05;60707.22;;;-144.06;39.12
11017;BME280;54687;50.800;6.772;2023-04-22T11:10:35;60728.19;;;-144.06;37.82
11017;BME280;54687;50.800;6.772;2023-04-22T11:13:05;60711.41;;;-144.06;38.27
11017;BME280;54687;50.800;6.772;2023-04-22T11:15:35;60721.91;;;-144.06;38.91
11017;BME280;54687;50.800;6.772;2023-04-22T11:18:07;60730.28;;;-144.06;38.85
11017;BME280;54687;50.800;6.772;2023-04-22T11:20:35;60677.88;;;-144.06;39.49
11017;BME280;54687;50.800;6.772;2023-04-22T11:23:02;60724.00;;;-144.06;38.68
11017;BME280;54687;50.800;6.772;2023-04-22T11:25:29;60677.88;;;-144.06;39.13
11017;BME280;54687;50.800;6.772;2023-04-22T11:27:56;60677.88;;;-144.06;38.69
11017;BME280;54687;50.800;6.772;2023-04-22T11:30:24;60749.16;;;-144.06;37.83
11017;BME280;54687;50.800;6.772;2023-04-22T11:32:53;60663.22;;;-144.06;38.50
11017;BME280;54687;50.800;6.772;2023-04-22T11:35:24;60707.22;;;-144.06;38.94
11017;BME280;54687;50.800;6.772;2023-04-22T11:37:53;60698.84;;;-144.06;38.80
11017;BME280;54687;50.800;6.772;2023-04-22T11:40:21;60654.81;;;-144.06;39.08
11017;BME280;54687;50.800;6.772;2023-04-22T11:42:49;60682.06;;;-144.06;38.90
11017;BME280;54687;50.800;6.772;2023-04-22T11:45:17;60682.06;;;-144.06;38.82
11017;BME280;54687;50.800;6.772;2023-04-22T11:47:44;60627.56;;;-144.06;38.61
11017;BME280;54687;50.800;6.772;2023-04-22T11:50:12;60677.88;;;-144.06;38.08
11017;BME280;54687;50.800;6.772;2023-04-22T11:52:49;60673.69;;;-144.06;38.28
11017;BME280;54687;50.800;6.772;2023-04-22T11:55:18;60690.47;;;-144.06;38.26
11017;BME280;54687;50.800;6.772;2023-04-22T11:57:51;60654.81;;;-144.06;38.53
11017;BME280;54687;50.800;6.772;2023-04-22T12:00:19;60665.31;;;-144.06;38.26
11017;BME280;54687;50.800;6.772;2023-04-22T12:02:54;60652.72;;;-144.06;37.55
11017;BME280;54687;50.800;6.772;2023-04-22T12:05:34;60640.16;;;-144.06;37.77
11017;BME280;54687;50.800;6.772;2023-04-22T12:08:06;60625.47;;;-144.06;37.72
11017;BME280;54687;50.800;6.772;2023-04-22T12:10:37;60644.34;;;-144.06;38.22
11017;BME280;54687;50.800;6.772;2023-04-22T12:13:04;60665.31;;;-144.06;38.14
11017;BME280;54687;50.800;6.772;2023-04-22T12:15:38;60646.44;;;-144.06;37.65
11017;BME280;54687;50.800;6.772;2023-04-22T12:18:06;60652.72;;;-144.06;37.88
11017;BME280;54687;50.800;6.772;2023-04-22T12:20:33;60711.41;;;-144.06;37.23
11017;BME280;54687;50.800;6.772;2023-04-22T12:23:00;60677.88;;;-144.06;37.70
11017;BME280;54687;50.800;6.772;2023-04-22T12:25:28;60631.78;;;-144.06;37.73
11017;BME280;54687;50.800;6.772;2023-04-22T12:27:58;60677.88;;;-144.06;37.57
11017;BME280;54687;50.800;6.772;2023-04-22T12:30:25;60644.34;;;-144.06;37.50
11017;BME280;54687;50.800;6.772;2023-04-22T12:32:52;60665.31;;;-144.06;37.83
11017;BME280;54687;50.800;6.772;2023-04-22T12:35:18;60665.31;;;-144.06;38.02
11017;BME280;54687;50.800;6.772;2023-04-22T12:37:45;60659.03;;;-144.06;38.14
11017;BME280;54687;50.800;6.772;2023-04-22T12:40:11;60679.97;;;-144.06;38.26
11017;BME280;54687;50.800;6.772;2023-04-22T12:42:40;60640.16;;;-144.06;38.19
11017;BME280;54687;50.800;6.772;2023-04-22T12:45:08;60663.22;;;-144.06;38.40